Time;durP1;ratioP1;P1;durP2;ratioP2;P2;SDS_P1;SDS_P2;PMS_P1;PMS_P2;Temp;Humidity;BMP_temperature;BMP_pressure;BME280_temperature;BME280_humidity;BME280_pressure;Samples;Min_cycle;Max_cycle;Signal;HPM_P1;HPM_P2
2023/09/12 00:01:08;;;;;;;14.88;9.23;;;;;;;17.59;100.00;100500.84;4934078;29;20056;-62
2023/09/12 00:03:35;;;;;;;18.60;10.27;;;;;;;17.60;100.00;100497.09;4933821;29;20075;-63
2023/09/12 00:06:04;;;;;;;17.63;9.95;;;;;;;17.54;100.00;100494.38;4935070;29;20083;-62
2023/09/12 00:08:30;;;;;;;16.00;9.50;;;;;;;17.54;100.00;100495.22;4935945;29;20047;-63
2023/09/12 00:11:05;;;;;;;17.70;9.93;;;;;;;17.52;100.00;100489.19;4935149;29;20133;-62
2023/09/12 00:13:32;;;;;;;18.83;10.15;;;;;;;17.45;100.00;100493.78;4937405;29;20048;-61
2023/09/12 00:15:59;;;;;;;13.45;9.10;;;;;;;17.44;100.00;100493.97;4937488;29;20106;-60
2023/09/12 00:18:26;;;;;;;17.02;10.57;;;;;;;17.38;100.00;100492.97;4937472;29;20047;-60
2023/09/12 00:20:53;;;;;;;16.67;9.98;;;;;;;17.37;100.00;100499.41;4937058;29;20071;-61
2023/09/12 00:23:21;;;;;;;15.38;9.93;;;;;;;17.27;100.00;100490.88;4937211;29;20484;-61
2023/09/12 00:25:50;;;;;;;23.42;9.27;;;;;;;17.33;100.00;100500.84;4937536;29;20044;-60
2023/09/12 00:28:16;;;;;;;27.10;9.75;;;;;;;17.27;100.00;100496.28;4937411;29;20061;-62
2023/09/12 00:30:43;;;;;;;27.42;9.55;;;;;;;17.23;100.00;100493.13;4934328;29;20048;-65
2023/09/12 00:33:09;;;;;;;22.67;9.85;;;;;;;17.22;100.00;100491.47;4932427;29;20456;-65
2023/09/12 00:35:36;;;;;;;20.38;9.63;;;;;;;17.24;100.00;100492.09;4932459;29;20047;-65
2023/09/12 00:38:03;;;;;;;20.20;9.80;;;;;;;17.17;100.00;100507.53;4933044;29;20048;-65
2023/09/12 00:40:29;;;;;;;17.98;9.05;;;;;;;17.17;100.00;100502.13;4932505;29;20048;-65
2023/09/12 00:42:59;;;;;;;23.77;9.82;;;;;;;17.16;100.00;100500.44;4932879;29;20056;-65
2023/09/12 00:45:25;;;;;;;21.25;9.60;;;;;;;17.13;100.00;100495.47;4933170;29;20048;-65
2023/09/12 00:47:53;;;;;;;17.60;8.48;;;;;;;17.09;100.00;100492.34;4933325;29;20411;-65
2023/09/12 00:50:22;;;;;;;18.23;9.18;;;;;;;16.98;100.00;100495.66;4933081;29;20048;-65
2023/09/12 00:52:49;;;;;;;19.45;9.15;;;;;;;17.03;100.00;100501.28;4933028;29;20081;-65
2023/09/12 00:55:17;;;;;;;19.42;9.88;;;;;;;17.07;100.00;100494.41;4933367;29;20060;-65
2023/09/12 00:57:45;;;;;;;16.85;8.63;;;;;;;17.11;100.00;100500.25;4934531;29;20700;-63
2023/09/12 01:00:13;;;;;;;15.73;9.93;;;;;;;17.09;100.00;100491.47;4935003;29;20099;-63
2023/09/12 01:02:42;;;;;;;18.77;10.00;;;;;;;17.07;100.00;100490.88;4937759;29;20051;-65
2023/09/12 01:08:50;;;;;;;20.65;9.45;;;;;;;16.99;100.00;100489.22;4938169;29;20552;-64
2023/09/12 01:11:17;;;;;;;21.30;9.35;;;;;;;16.95;100.00;100496.06;4939026;29;20461;-64
2023/09/12 01:13:43;;;;;;;14.48;9.25;;;;;;;16.98;100.00;100492.09;4939923;29;20062;-64
2023/09/12 01:16:10;;;;;;;14.75;9.35;;;;;;;16.99;100.00;100491.91;4940819;29;20051;-64
2023/09/12 01:18:37;;;;;;;22.17;10.65;;;;;;;16.98;100.00;100483.97;4938164;29;20067;-62
2023/09/12 01:21:09;;;;;;;16.25;9.32;;;;;;;16.96;100.00;100494.22;4921274;29;20082;-63
2023/09/12 01:24:14;;;;;;;17.70;9.25;;;;;;;16.89;100.00;100480.66;4938305;29;20428;-63
2023/09/12 01:26:57;;;;;;;18.08;9.10;;;;;;;16.85;100.00;100488.38;4938333;29;20052;-63
2023/09/12 01:29:25;;;;;;;20.08;10.60;;;;;;;16.81;100.00;100480.84;4921171;29;20060;-63
2023/09/12 01:31:53;;;;;;;18.63;9.95;;;;;;;16.77;100.00;100483.13;4938303;29;20044;-63
2023/09/12 01:34:20;;;;;;;15.90;9.40;;;;;;;16.83;100.00;100490.44;4938266;29;20122;-63
2023/09/12 01:36:47;;;;;;;15.10;9.38;;;;;;;16.82;100.00;100493.38;4938520;29;20095;-64
2023/09/12 01:39:13;;;;;;;18.65;10.38;;;;;;;16.82;100.00;100486.06;4939974;29;20099;-64
2023/09/12 01:41:43;;;;;;;19.90;10.75;;;;;;;16.81;100.00;100488.97;4939110;29;20135;-64
2023/09/12 01:44:11;;;;;;;17.88;9.40;;;;;;;16.80;100.00;100487.31;4937030;29;20051;-62
2023/09/12 01:46:39;;;;;;;23.73;10.73;;;;;;;16.75;100.00;100482.53;4937514;29;20052;-62
2023/09/12 01:49:08;;;;;;;15.90;10.13;;;;;;;16.73;100.00;100479.16;4938023;29;20535;-62
2023/09/12 01:51:35;;;;;;;15.95;9.30;;;;;;;16.74;100.00;100485.41;4937868;29;20059;-62
2023/09/12 01:54:03;;;;;;;21.33;10.10;;;;;;;16.69;100.00;100482.50;4937796;29;20052;-62
2023/09/12 01:56:31;;;;;;;15.15;9.82;;;;;;;16.71;100.00;100483.13;4937697;29;20357;-63
2023/09/12 01:58:58;;;;;;;15.00;9.43;;;;;;;16.66;100.00;100481.88;4937751;29;20058;-63
2023/09/12 02:01:27;;;;;;;17.05;9.25;;;;;;;16.64;100.00;100475.84;4937832;29;20102;-63
2023/09/12 02:03:53;;;;;;;15.00;10.35;;;;;;;16.61;100.00;100480.84;4920993;29;20047;-63
2023/09/12 02:06:20;;;;;;;19.70;10.50;;;;;;;16.61;100.00;100475.41;4921635;29;20055;-64
2023/09/12 02:08:46;;;;;;;22.20;10.05;;;;;;;16.57;100.00;100471.44;4937682;29;20469;-64
2023/09/12 02:11:14;;;;;;;14.75;10.02;;;;;;;16.53;100.00;100470.19;4938807;29;20059;-64
2023/09/12 02:13:40;;;;;;;16.10;10.27;;;;;;;16.51;100.00;100467.69;4938465;29;20047;-64
2023/09/12 02:16:07;;;;;;;12.70;10.02;;;;;;;16.48;100.00;100467.25;4938630;29;20052;-64
2023/09/12 02:18:35;;;;;;;17.15;9.63;;;;;;;16.46;100.00;100464.72;4938939;29;20051;-64
2023/09/12 02:21:02;;;;;;;17.92;9.82;;;;;;;16.45;100.00;100465.75;4939042;29;20043;-65
2023/09/12 02:23:29;;;;;;;15.90;9.90;;;;;;;16.46;100.00;100461.19;4938460;29;20050;-65
2023/09/12 02:25:55;;;;;;;16.85;10.20;;;;;;;16.43;100.00;100457.00;4939589;29;20039;-63
2023/09/12 02:28:22;;;;;;;20.98;9.57;;;;;;;16.39;100.00;100456.56;4939196;29;20052;-65
2023/09/12 02:30:49;;;;;;;17.25;9.98;;;;;;;16.37;100.00;100460.56;4938909;29;20047;-64
2023/09/12 02:33:15;;;;;;;23.23;9.57;;;;;;;16.31;100.00;100464.91;4938028;29;20070;-64
2023/09/12 02:35:43;;;;;;;22.00;10.57;;;;;;;16.26;100.00;100466.53;4939006;29;20585;-65
2023/09/12 02:38:09;;;;;;;16.08;10.18;;;;;;;16.26;100.00;100469.25;4936998;29;20115;-62
2023/09/12 02:40:36;;;;;;;18.55;9.80;;;;;;;16.21;100.00;100466.34;4940374;29;20052;-61
2023/09/12 02:43:02;;;;;;;16.60;9.50;;;;;;;16.15;100.00;100459.84;4939784;29;20051;-60
2023/09/12 02:45:29;;;;;;;17.73;9.43;;;;;;;16.16;100.00;100462.38;4939763;29;20051;-61
2023/09/12 02:47:55;;;;;;;15.77;9.43;;;;;;;16.16;100.00;100450.72;4940116;29;20058;-60
2023/09/12 02:50:22;;;;;;;13.77;8.98;;;;;;;16.14;100.00;100458.19;4939533;29;20055;-61
2023/09/12 02:52:49;;;;;;;13.65;9.13;;;;;;;16.09;100.00;100456.09;4939582;29;20465;-61
2023/09/12 02:55:15;;;;;;;21.95;13.50;;;;;;;16.13;100.00;100456.53;4939821;29;20106;-61
2023/09/12 02:57:42;;;;;;;24.25;11.57;;;;;;;16.08;100.00;100459.81;4940008;29;20056;-59
2023/09/12 03:00:09;;;;;;;14.93;9.93;;;;;;;16.06;100.00;100456.50;4940011;29;20123;-59
2023/09/12 03:02:35;;;;;;;15.25;9.38;;;;;;;16.09;100.00;100447.13;4939234;29;20056;-60
2023/09/12 03:05:02;;;;;;;14.05;9.65;;;;;;;16.04;100.00;100450.44;4939074;29;20054;-61
2023/09/12 03:07:30;;;;;;;17.95;10.27;;;;;;;15.99;100.00;100454.81;4939815;29;20118;-60
2023/09/12 03:09:56;;;;;;;20.13;10.15;;;;;;;15.92;100.00;100443.97;4939239;29;20083;-61
2023/09/12 03:12:23;;;;;;;18.40;10.40;;;;;;;15.94;100.00;100436.47;4939318;29;20088;-59
2023/09/12 03:14:49;;;;;;;24.90;10.88;;;;;;;15.89;100.00;100447.06;4939523;29;20071;-60
2023/09/12 03:17:16;;;;;;;12.98;9.57;;;;;;;15.89;100.00;100449.78;4939660;29;20043;-61
2023/09/12 03:19:42;;;;;;;21.35;10.02;;;;;;;15.87;100.00;100441.03;4940202;29;20067;-60
2023/09/12 03:22:09;;;;;;;15.43;10.05;;;;;;;15.89;100.00;100441.66;4939238;29;20103;-62
2023/09/12 03:24:36;;;;;;;18.35;10.18;;;;;;;15.88;100.00;100439.97;4936169;29;20051;-65
2023/09/12 03:27:02;;;;;;;17.90;9.82;;;;;;;15.84;100.00;100436.84;4917698;29;20055;-64
2023/09/12 03:29:29;;;;;;;17.42;9.68;;;;;;;15.85;100.00;100448.50;4934590;29;20046;-65
2023/09/12 03:31:56;;;;;;;16.73;9.65;;;;;;;15.91;100.00;100440.41;4934922;29;20119;-65
2023/09/12 03:34:23;;;;;;;16.13;9.68;;;;;;;15.84;100.00;100441.41;4934507;29;20047;-65
2023/09/12 03:36:50;;;;;;;17.65;10.90;;;;;;;15.85;100.00;100438.53;4934460;29;20489;-64
2023/09/12 03:39:16;;;;;;;18.10;10.40;;;;;;;15.87;100.00;100443.72;4934591;29;20072;-65
2023/09/12 03:41:43;;;;;;;19.23;10.95;;;;;;;15.77;100.00;100440.56;4934264;29;20058;-65
2023/09/12 03:44:09;;;;;;;17.67;10.40;;;;;;;15.81;100.00;100442.69;4934264;29;20370;-65
2023/09/12 03:46:36;;;;;;;20.85;10.75;;;;;;;15.84;100.00;100446.81;4934386;29;20055;-65
2023/09/12 03:49:03;;;;;;;16.10;10.00;;;;;;;15.80;100.00;100438.28;4935910;29;20051;-63
2023/09/12 03:51:29;;;;;;;19.48;10.43;;;;;;;15.79;100.00;100455.56;4935959;29;20098;-63
2023/09/12 03:53:57;;;;;;;13.98;9.85;;;;;;;15.77;100.00;100459.50;4936650;29;20079;-63
2023/09/12 03:56:23;;;;;;;17.65;10.13;;;;;;;15.76;100.00;100460.53;4936008;29;20563;-63
2023/09/12 03:58:50;;;;;;;18.05;9.82;;;;;;;15.68;100.00;100451.56;4936654;29;20088;-64
2023/09/12 04:01:16;;;;;;;12.88;10.20;;;;;;;15.65;100.00;100456.53;4937926;29;20099;-65
2023/09/12 04:03:44;;;;;;;16.75;10.07;;;;;;;15.62;100.00;100460.44;4937246;29;20563;-64
2023/09/12 04:06:11;;;;;;;19.17;11.00;;;;;;;15.54;100.00;100455.19;4936836;29;20051;-64
2023/09/12 04:08:37;;;;;;;15.40;10.65;;;;;;;15.55;100.00;100453.31;4936805;29;20412;-66
2023/09/12 04:11:04;;;;;;;16.45;10.10;;;;;;;15.54;100.00;100457.06;4937141;29;20044;-65
2023/09/12 04:13:30;;;;;;;19.20;10.77;;;;;;;15.48;100.00;100458.69;4936714;29;20082;-65
2023/09/12 04:15:57;;;;;;;27.08;10.55;;;;;;;15.49;100.00;100461.19;4938162;29;20385;-64
2023/09/12 04:18:26;;;;;;;17.67;9.80;;;;;;;15.52;100.00;100453.72;4937872;29;20048;-65
2023/09/12 04:20:55;;;;;;;18.75;10.02;;;;;;;15.52;100.00;100453.72;4937440;29;20062;-65
2023/09/12 04:23:21;;;;;;;13.50;10.27;;;;;;;15.52;100.00;100457.25;4937878;29;20043;-64
2023/09/12 04:25:48;;;;;;;16.70;10.27;;;;;;;15.51;100.00;100452.88;4937367;29;20107;-64
2023/09/12 04:28:15;;;;;;;15.77;10.30;;;;;;;15.48;100.00;100455.97;4937331;29;20047;-64
2023/09/12 04:30:44;;;;;;;18.08;10.57;;;;;;;15.48;100.00;100454.13;4937227;29;20060;-65
2023/09/12 04:33:13;;;;;;;15.15;9.60;;;;;;;15.44;100.00;100460.13;4937408;29;20051;-64
2023/09/12 04:35:39;;;;;;;20.23;10.60;;;;;;;15.29;100.00;100453.97;4935520;29;20126;-63
2023/09/12 04:38:06;;;;;;;17.75;10.48;;;;;;;15.25;100.00;100457.06;4922116;29;20476;-63
2023/09/12 04:40:32;;;;;;;18.42;10.50;;;;;;;15.32;100.00;100459.81;4939242;29;20063;-63
2023/09/12 04:42:59;;;;;;;24.52;10.38;;;;;;;15.36;100.00;100455.72;4939818;29;20079;-63
2023/09/12 04:45:26;;;;;;;19.20;10.10;;;;;;;15.40;100.00;100456.97;4939365;29;20051;-63
2023/09/12 04:47:52;;;;;;;20.55;10.85;;;;;;;15.39;100.00;100455.28;4938164;29;20054;-63
2023/09/12 04:50:19;;;;;;;17.33;10.85;;;;;;;15.41;100.00;100460.53;4938302;29;20055;-63
2023/09/12 04:52:45;;;;;;;17.77;10.60;;;;;;;15.46;100.00;100460.75;4938924;29;20106;-63
2023/09/12 04:55:12;;;;;;;18.92;10.70;;;;;;;15.47;100.00;100454.31;4938831;29;20098;-63
2023/09/12 04:57:38;;;;;;;23.92;11.10;;;;;;;15.46;100.00;100464.28;4939131;29;20052;-63
2023/09/12 05:00:08;;;;;;;19.00;10.23;;;;;;;15.48;100.00;100458.69;4939029;29;20070;-63
2023/09/12 05:02:35;;;;;;;17.60;10.90;;;;;;;15.51;100.00;100468.28;4941203;29;20059;-61
2023/09/12 05:05:02;;;;;;;21.65;11.15;;;;;;;15.53;100.00;100471.59;4942178;29;20048;-61
2023/09/12 05:07:29;;;;;;;26.58;11.13;;;;;;;15.56;100.00;100472.03;4942145;29;20051;-60
2023/09/12 05:09:55;;;;;;;23.33;10.82;;;;;;;15.59;100.00;100477.03;4941927;29;20055;-60
2023/09/12 05:12:22;;;;;;;20.55;10.60;;;;;;;15.55;100.00;100475.78;4942162;29;20043;-61
2023/09/12 05:14:48;;;;;;;17.25;11.73;;;;;;;15.68;100.00;100475.91;4941337;28;20055;-59
2023/09/12 05:17:15;;;;;;;21.38;12.13;;;;;;;15.70;100.00;100471.09;4941419;29;20044;-59
2023/09/12 05:19:42;;;;;;;19.50;12.05;;;;;;;15.79;100.00;100470.94;4941621;29;20059;-61
2023/09/12 05:22:09;;;;;;;19.02;11.80;;;;;;;15.82;100.00;100475.97;4940659;29;20103;-59
2023/09/12 05:24:35;;;;;;;25.00;11.38;;;;;;;15.88;100.00;100475.13;4941825;29;20051;-61
2023/09/12 05:27:02;;;;;;;20.23;11.82;;;;;;;15.99;100.00;100481.88;4940909;29;20044;-62
2023/09/12 05:29:28;;;;;;;21.88;11.25;;;;;;;15.96;100.00;100477.69;4940965;29;20051;-63
2023/09/12 05:31:55;;;;;;;23.70;11.82;;;;;;;15.81;100.00;100479.69;4942205;29;20074;-59
2023/09/12 05:34:22;;;;;;;26.90;11.32;;;;;;;15.82;100.00;100474.09;4941185;29;20523;-61
2023/09/12 05:36:48;;;;;;;22.38;11.73;;;;;;;15.97;100.00;100483.94;4941478;29;20055;-60
2023/09/12 05:39:15;;;;;;;25.25;11.18;;;;;;;16.05;100.00;100486.44;4941106;29;20539;-60
2023/09/12 05:41:41;;;;;;;24.75;11.27;;;;;;;16.10;100.00;100490.22;4940842;29;20062;-61
2023/09/12 05:44:08;;;;;;;17.67;11.23;;;;;;;16.13;100.00;100483.59;4941082;29;20472;-60
2023/09/12 05:46:35;;;;;;;24.50;11.25;;;;;;;16.17;100.00;100492.97;4940568;29;20051;-59
2023/09/12 05:49:01;;;;;;;23.27;11.57;;;;;;;16.24;100.00;100493.00;4940886;29;20055;-60
2023/09/12 05:51:28;;;;;;;17.73;10.73;;;;;;;16.23;100.00;100494.00;4941033;29;20111;-60
2023/09/12 05:53:54;;;;;;;28.10;10.70;;;;;;;16.30;100.00;100497.59;4940986;29;20044;-60
2023/09/12 05:56:21;;;;;;;28.65;11.38;;;;;;;16.36;100.00;100496.75;4941845;29;20394;-60
2023/09/12 05:58:50;;;;;;;22.35;11.73;;;;;;;16.29;100.00;100498.63;4941666;29;20118;-61
2023/09/12 06:01:17;;;;;;;24.33;12.05;;;;;;;16.35;100.00;100500.53;4941306;29;20044;-60
2023/09/12 06:03:43;;;;;;;24.13;10.27;;;;;;;16.31;100.00;100504.69;4940615;29;20051;-59
2023/09/12 06:06:11;;;;;;;20.73;10.95;;;;;;;16.32;100.00;100504.47;4937306;29;20133;-65
2023/09/12 06:08:38;;;;;;;23.48;11.82;;;;;;;16.51;100.00;100504.78;4936156;29;20051;-65
2023/09/12 06:11:04;;;;;;;25.02;11.70;;;;;;;16.50;100.00;100508.47;4935837;29;20071;-66
2023/09/12 06:13:32;;;;;;;24.13;13.35;;;;;;;16.74;100.00;100507.09;4936075;29;20484;-66
2023/09/12 06:15:59;;;;;;;20.40;11.35;;;;;;;16.76;100.00;100510.44;4936001;29;20118;-65
2023/09/12 06:18:28;;;;;;;18.77;11.05;;;;;;;16.90;100.00;100504.81;4936034;29;20107;-64
2023/09/12 06:20:55;;;;;;;18.02;11.15;;;;;;;17.03;100.00;100501.28;4935756;29;20374;-65
2023/09/12 06:23:21;;;;;;;17.98;10.38;;;;;;;17.07;100.00;100497.13;4935831;29;20067;-65
2023/09/12 06:25:48;;;;;;;21.63;10.88;;;;;;;17.23;100.00;100503.16;4935968;29;20057;-65
2023/09/12 06:28:25;;;;;;;20.65;10.07;;;;;;;17.54;100.00;100513.38;4935507;29;20102;-64
2023/09/12 06:30:52;;;;;;;23.63;10.73;;;;;;;17.72;100.00;100510.84;4935577;29;20051;-63
2023/09/12 06:33:20;;;;;;;22.67;10.15;;;;;;;17.93;100.00;100509.72;4937645;29;20062;-62
2023/09/12 06:35:50;;;;;;;26.38;11.05;;;;;;;18.18;100.00;100517.19;4936151;29;20102;-63
2023/09/12 06:38:16;;;;;;;29.88;13.98;;;;;;;18.43;100.00;100515.38;4937240;29;20047;-63
2023/09/12 06:40:43;;;;;;;22.13;11.05;;;;;;;18.81;100.00;100524.56;4936909;29;20056;-64
2023/09/12 06:43:10;;;;;;;16.80;9.00;;;;;;;19.07;100.00;100523.56;4937112;29;20131;-63
2023/09/12 06:45:37;;;;;;;25.70;9.27;;;;;;;19.11;100.00;100519.38;4936803;29;20064;-63
2023/09/12 06:48:04;;;;;;;16.85;8.65;;;;;;;19.47;100.00;100527.59;4937961;29;20051;-61
2023/09/12 06:50:31;;;;;;;27.27;9.48;;;;;;;19.57;100.00;100534.44;4939243;29;20062;-59
2023/09/12 06:53:00;;;;;;;22.20;9.27;;;;;;;20.06;100.00;100543.56;4937534;29;20428;-64
2023/09/12 06:55:27;;;;;;;21.05;8.32;;;;;;;20.16;100.00;100544.69;4938487;29;20050;-64
2023/09/12 06:57:54;;;;;;;14.65;7.97;;;;;;;20.48;100.00;100557.31;4938380;29;20047;-64
2023/09/12 07:00:21;;;;;;;28.27;8.25;;;;;;;20.47;100.00;100539.31;4937115;29;20059;-64
2023/09/12 07:02:47;;;;;;;26.17;8.52;;;;;;;21.33;91.69;100543.50;4938654;29;20062;-65
2023/09/12 07:05:14;;;;;;;25.65;8.32;;;;;;;21.68;88.09;100537.19;4938557;29;20420;-64
2023/09/12 07:07:41;;;;;;;18.73;7.72;;;;;;;22.02;81.75;100544.53;4937925;29;20056;-65
2023/09/12 07:10:07;;;;;;;18.02;7.47;;;;;;;22.29;80.41;100541.25;4936609;29;20047;-65
2023/09/12 07:12:49;;;;;;;17.17;8.05;;;;;;;22.75;76.32;100551.22;4935497;29;20478;-59
2023/09/12 07:15:16;;;;;;;26.95;8.27;;;;;;;23.06;73.24;100545.47;4938012;29;20048;-60
2023/09/12 07:17:45;;;;;;;19.05;7.78;;;;;;;23.53;71.38;100545.13;4938449;29;20527;-60
2023/09/12 07:20:20;;;;;;;17.52;7.40;;;;;;;23.96;68.49;100549.91;5085350;27;20379;-61
2023/09/12 07:22:46;;;;;;;18.02;7.40;;;;;;;24.65;64.69;100536.50;5082170;27;20083;-58
2023/09/12 07:25:18;;;;;;;20.17;7.53;;;;;;;24.73;62.82;100543.41;5082974;27;20103;-59
2023/09/12 07:27:45;;;;;;;24.50;7.28;;;;;;;25.53;60.79;100541.66;5082015;27;20055;-61
2023/09/12 07:30:11;;;;;;;15.32;7.13;;;;;;;26.09;58.46;100533.72;5081957;27;20052;-59
2023/09/12 07:32:38;;;;;;;18.33;7.53;;;;;;;26.14;56.73;100532.13;5083322;27;20070;-62
2023/09/12 07:35:05;;;;;;;20.05;6.70;;;;;;;26.70;54.82;100535.06;5081252;27;20047;-59
2023/09/12 07:37:31;;;;;;;17.08;6.55;;;;;;;26.77;54.05;100530.13;5083794;27;20060;-62
2023/09/12 07:39:58;;;;;;;21.35;6.85;;;;;;;27.12;53.24;100525.75;5080602;27;20055;-60
2023/09/12 07:42:25;;;;;;;14.98;6.25;;;;;;;26.97;52.66;100526.59;5080339;27;20047;-61
2023/09/12 07:44:51;;;;;;;22.02;7.30;;;;;;;27.29;51.54;100529.03;5083286;27;20040;-61
2023/09/12 07:47:19;;;;;;;22.52;6.78;;;;;;;27.54;50.88;100524.63;5080628;27;20071;-61
2023/09/12 07:49:53;;;;;;;19.67;6.80;;;;;;;27.21;51.12;100533.19;5082814;27;20041;-61
2023/09/12 07:52:20;;;;;;;27.60;8.15;;;;;;;27.83;50.29;100533.06;5081262;27;20440;-60
2023/09/12 07:54:49;;;;;;;17.33;7.63;;;;;;;28.48;48.60;100522.09;5082954;27;20425;-61
2023/09/12 07:57:15;;;;;;;27.98;7.80;;;;;;;28.46;48.19;100532.59;5081652;27;20048;-60
2023/09/12 07:59:42;;;;;;;20.85;6.72;;;;;;;28.64;47.53;100527.25;5081730;27;20516;-60
2023/09/12 08:02:12;;;;;;;24.20;6.55;;;;;;;28.63;47.42;100533.03;5081626;27;20106;-60
2023/09/12 08:04:39;;;;;;;17.60;5.90;;;;;;;27.86;49.08;100536.09;5082108;27;20049;-60
2023/09/12 08:07:05;;;;;;;15.57;6.22;;;;;;;28.94;47.10;100535.56;5091738;27;20424;-60
2023/09/12 08:09:52;;;;;;;20.40;6.13;;;;;;;28.79;46.27;100534.56;5092030;27;20056;-64
2023/09/12 08:12:20;;;;;;;18.98;6.20;;;;;;;29.60;45.44;100533.09;5090565;27;20546;-64
2023/09/12 08:14:48;;;;;;;25.58;5.40;;;;;;;29.11;45.12;100528.53;5090987;27;20120;-65
2023/09/12 08:17:15;;;;;;;19.52;5.88;;;;;;;29.22;45.27;100523.78;5090845;28;20101;-66
2023/09/12 08:19:42;;;;;;;17.50;5.07;;;;;;;29.31;44.69;100522.03;5090361;28;20077;-65
2023/09/12 08:22:10;;;;;;;22.27;5.90;;;;;;;29.89;44.42;100525.88;5090571;28;20078;-65
2023/09/12 08:24:36;;;;;;;21.65;6.00;;;;;;;29.56;44.38;100532.00;5089642;27;20040;-63
2023/09/12 08:27:03;;;;;;;22.20;5.00;;;;;;;29.30;44.72;100528.66;5090189;27;20071;-64
2023/09/12 08:29:33;;;;;;;20.90;6.22;;;;;;;30.19;43.33;100524.66;5088542;27;20040;-64
2023/09/12 08:32:02;;;;;;;17.45;5.07;;;;;;;30.25;42.45;100520.72;5075425;28;20045;-63
2023/09/12 08:34:29;;;;;;;18.45;5.60;;;;;;;30.53;42.29;100518.97;5068693;28;20132;-62
2023/09/12 08:36:56;;;;;;;20.00;6.03;;;;;;;30.92;40.74;100518.66;5058493;28;20045;-61
2023/09/12 08:39:26;;;;;;;29.88;6.38;;;;;;;31.22;40.67;100522.84;5058272;28;20037;-60
2023/09/12 08:41:53;;;;;;;16.77;5.65;;;;;;;31.68;39.98;100530.38;5057727;28;20098;-60
2023/09/12 08:44:22;;;;;;;21.25;5.43;;;;;;;31.85;39.11;100528.91;5057552;28;20055;-60
2023/09/12 08:46:49;;;;;;;15.82;5.88;;;;;;;32.63;37.96;100533.38;5058063;28;20068;-61
2023/09/12 08:49:16;;;;;;;24.02;6.68;;;;;;;32.51;37.88;100532.28;5057401;28;20195;-60
2023/09/12 08:51:44;;;;;;;30.98;6.65;;;;;;;32.55;37.27;100538.88;5057937;28;20075;-60
2023/09/12 08:54:11;;;;;;;23.60;5.20;;;;;;;32.21;37.60;100544.88;5057684;28;20049;-59
2023/09/12 08:56:41;;;;;;;27.85;6.03;;;;;;;32.49;37.31;100543.69;5056858;28;20114;-60
2023/09/12 08:59:08;;;;;;;21.60;5.88;;;;;;;32.38;37.19;100545.84;5057249;28;20037;-60
2023/09/12 09:01:36;;;;;;;28.83;6.45;;;;;;;33.45;35.60;100545.28;5057968;28;20531;-59
2023/09/12 09:04:03;;;;;;;22.45;5.97;;;;;;;33.87;35.40;100542.19;5057633;28;20067;-61
2023/09/12 09:06:32;;;;;;;26.38;5.43;;;;;;;33.77;35.13;100548.84;5053376;28;20136;-65
2023/09/12 09:09:02;;;;;;;20.40;5.40;;;;;;;33.98;34.81;100544.38;5053383;28;20132;-65
2023/09/12 09:11:28;;;;;;;20.50;6.00;;;;;;;34.48;34.18;100546.78;5033397;28;20049;-65
2023/09/12 09:13:56;;;;;;;27.33;5.32;;;;;;;34.34;34.33;100551.66;5042507;28;20049;-66
2023/09/12 09:16:23;;;;;;;23.95;6.10;;;;;;;35.22;33.21;100558.91;5052360;28;20045;-66
2023/09/12 09:19:01;;;;;;;24.02;6.05;;;;;;;35.48;32.25;100556.88;5052373;28;20060;-66
2023/09/12 09:21:30;;;;;;;21.73;5.72;;;;;;;35.40;32.64;100565.28;5052937;28;20051;-66
2023/09/12 09:24:06;;;;;;;27.20;6.22;;;;;;;35.48;32.44;100568.03;5052818;28;20481;-66
2023/09/12 09:26:43;;;;;;;27.55;5.85;;;;;;;35.21;32.30;100577.63;5056354;28;20052;-63
2023/09/12 09:29:19;;;;;;;29.55;6.40;;;;;;;35.26;32.55;100573.84;5055736;28;20416;-62
2023/09/12 09:31:49;;;;;;;29.92;6.30;;;;;;;34.92;33.29;100581.06;5055025;28;20083;-62
2023/09/12 09:34:19;;;;;;;24.23;5.78;;;;;;;35.06;33.33;100580.09;5056422;28;20524;-62
2023/09/12 09:36:49;;;;;;;25.75;6.13;;;;;;;34.70;33.47;100576.47;5055972;28;20044;-63
2023/09/12 09:39:17;;;;;;;30.88;6.80;;;;;;;35.41;32.45;100572.50;5055010;28;20053;-62
2023/09/12 09:41:57;;;;;;;29.90;6.43;;;;;;;35.86;32.19;100572.03;5055267;28;20452;-63
2023/09/12 09:44:26;;;;;;;21.83;6.30;;;;;;;36.15;31.81;100579.66;5054717;28;20489;-63
2023/09/12 09:47:02;;;;;;;26.98;6.53;;;;;;;35.89;32.11;100565.78;5054383;28;20047;-62
2023/09/12 09:49:34;;;;;;;28.83;6.85;;;;;;;35.83;32.29;100576.31;5054094;28;20558;-64
2023/09/12 09:52:04;;;;;;;27.63;6.25;;;;;;;36.72;31.49;100575.50;5054328;28;20041;-64
2023/09/12 09:54:30;;;;;;;30.13;6.45;;;;;;;34.61;34.58;100580.38;5054149;28;20110;-63
2023/09/12 09:56:58;;;;;;;29.17;6.88;;;;;;;35.11;33.79;100574.31;5055084;28;20041;-63
2023/09/12 09:59:26;;;;;;;21.63;6.35;;;;;;;35.13;33.73;100578.44;5053727;28;20485;-63
2023/09/12 10:01:59;;;;;;;19.80;6.53;;;;;;;35.05;34.49;100582.06;5052816;28;20053;-63
2023/09/12 10:04:28;;;;;;;16.73;6.63;;;;;;;34.98;33.99;100574.19;5053717;28;20075;-62
2023/09/12 10:06:58;;;;;;;16.90;6.90;;;;;;;36.21;32.44;100572.69;5053684;28;20068;-64
2023/09/12 10:09:30;;;;;;;22.08;7.07;;;;;;;35.26;33.15;100573.84;5052784;28;20045;-63
2023/09/12 10:11:58;;;;;;;29.75;7.60;;;;;;;35.93;32.56;100556.41;5055195;28;20448;-63
2023/09/12 10:14:26;;;;;;;25.80;6.75;;;;;;;34.04;34.85;100561.75;5054241;28;20045;-64
2023/09/12 10:17:00;;;;;;;21.30;6.55;;;;;;;34.08;34.39;100548.00;5053468;28;20068;-63
2023/09/12 10:19:42;;;;;;;15.98;6.22;;;;;;;32.43;37.29;100550.47;5053141;28;20091;-64
2023/09/12 10:22:27;;;;;;;23.55;6.78;;;;;;;32.09;38.36;100546.19;5052580;28;20049;-62
2023/09/12 10:24:56;;;;;;;22.00;7.10;;;;;;;32.94;37.01;100540.97;5052677;28;20091;-64
2023/09/12 10:27:25;;;;;;;24.23;8.00;;;;;;;34.15;35.73;100528.88;5054364;28;20049;-65
2023/09/12 10:29:53;;;;;;;21.00;7.18;;;;;;;32.96;36.87;100530.41;5053561;28;20048;-66
2023/09/12 10:32:21;;;;;;;26.55;6.53;;;;;;;33.30;37.00;100528.94;5052011;28;20064;-64
2023/09/12 10:34:48;;;;;;;23.40;7.00;;;;;;;32.09;38.66;100525.94;5047799;28;20057;-62
2023/09/12 10:37:21;;;;;;;28.60;7.22;;;;;;;32.73;37.70;100526.75;5032039;28;20045;-63
2023/09/12 10:39:48;;;;;;;27.00;7.78;;;;;;;32.18;38.50;100521.31;5032720;28;20513;-59
2023/09/12 10:42:17;;;;;;;23.40;7.20;;;;;;;32.63;38.85;100533.38;5034727;28;20461;-61
2023/09/12 10:44:46;;;;;;;28.15;6.95;;;;;;;32.80;38.14;100526.31;5034760;28;20068;-61
2023/09/12 10:47:14;;;;;;;28.00;6.60;;;;;;;32.27;38.34;100532.50;5034952;28;20060;-61
2023/09/12 10:49:43;;;;;;;27.45;6.97;;;;;;;31.42;39.68;100526.41;5034460;28;20045;-61
2023/09/12 10:52:10;;;;;;;36.63;7.75;;;;;;;31.55;39.68;100530.34;5033926;28;20049;-59
2023/09/12 10:54:39;;;;;;;30.00;6.63;;;;;;;31.66;39.86;100538.16;5034036;28;20072;-61
2023/09/12 10:57:08;;;;;;;33.33;6.93;;;;;;;31.65;39.90;100532.94;5034165;28;20068;-61
2023/09/12 11:00:10;;;;;;;28.80;7.45;;;;;;;31.73;39.93;100538.56;5034307;28;20042;-59
2023/09/12 11:02:39;;;;;;;31.08;7.40;;;;;;;31.73;39.83;100534.97;5034173;28;20050;-60
2023/09/12 11:05:26;;;;;;;30.58;7.00;;;;;;;31.24;40.79;100536.44;5033966;28;20111;-58
2023/09/12 11:07:58;;;;;;;29.55;7.13;;;;;;;31.17;41.24;100541.53;5034655;28;20049;-61
2023/09/12 11:10:25;;;;;;;28.50;7.32;;;;;;;31.19;41.13;100531.81;5034708;28;20046;-60
2023/09/12 11:12:54;;;;;;;31.08;7.50;;;;;;;30.74;42.15;100531.41;5035294;28;20539;-60
2023/09/12 11:15:23;;;;;;;21.48;6.78;;;;;;;30.51;42.29;100522.03;5053821;28;20051;-60
2023/09/12 11:18:00;;;;;;;22.17;7.30;;;;;;;30.40;43.64;100534.38;5054003;28;20049;-61